createdAt,value
2019-02-15T00:02:21.066Z,8.53
2019-02-15T00:05:02.107Z,11.48
2019-02-15T00:07:31.086Z,12.00
2019-02-15T00:10:00.059Z,9.50
2019-02-15T00:12:29.132Z,8.83
2019-02-15T00:14:58.124Z,14.38
2019-02-15T00:17:44.680Z,13.48
2019-02-15T00:20:22.984Z,11.63
2019-02-15T00:22:51.996Z,8.73
2019-02-15T00:25:20.966Z,9.85
2019-02-15T00:27:49.931Z,9.20
2019-02-15T00:30:20.312Z,13.95
2019-02-15T00:32:49.305Z,11.83
2019-02-15T00:35:18.286Z,7.30
2019-02-15T00:37:47.284Z,11.80
2019-02-15T00:40:16.870Z,7.75
2019-02-15T00:42:45.872Z,8.78
2019-02-15T00:45:16.546Z,7.40
2019-02-15T00:47:57.211Z,6.10
2019-02-15T00:50:44.185Z,9.03
2019-02-15T00:53:50.101Z,10.58
2019-02-15T00:56:25.757Z,7.28
2019-02-15T00:59:06.496Z,9.25
2019-02-15T01:01:52.377Z,9.15
2019-02-15T01:04:46.138Z,8.48
2019-02-15T01:07:25.091Z,10.78
2019-02-15T01:10:18.829Z,8.48
2019-02-15T01:13:06.761Z,12.35
2019-02-15T01:15:35.760Z,9.35
2019-02-15T01:18:04.785Z,6.42
2019-02-15T01:20:33.785Z,7.08
2019-02-15T01:23:02.782Z,8.95
2019-02-15T01:25:38.363Z,7.03
2019-02-15T01:28:29.300Z,11.65
2019-02-15T01:31:20.316Z,12.78
2019-02-15T01:34:16.456Z,11.97
2019-02-15T01:36:53.115Z,7.78
2019-02-15T01:39:28.452Z,7.10
2019-02-15T01:42:15.408Z,9.20
2019-02-15T01:44:51.630Z,9.68
2019-02-15T01:47:45.612Z,11.53
2019-02-15T01:50:14.620Z,8.15
2019-02-15T01:52:43.586Z,6.53
2019-02-15T01:55:12.567Z,11.90
2019-02-15T01:57:41.552Z,8.33
2019-02-15T02:00:13.287Z,12.10
2019-02-15T02:02:42.257Z,10.90
2019-02-15T02:05:11.252Z,7.75
2019-02-15T02:07:40.227Z,10.30
2019-02-15T02:10:10.727Z,12.43
2019-02-15T02:12:39.707Z,15.03
2019-02-15T02:15:11.227Z,10.08
2019-02-15T02:17:40.248Z,7.00
2019-02-15T02:20:10.032Z,9.85
2019-02-15T02:22:39.063Z,8.73
2019-02-15T02:25:08.127Z,6.67
2019-02-15T02:27:37.128Z,7.97
2019-02-15T02:30:08.477Z,9.78
2019-02-15T02:32:37.496Z,10.10
2019-02-15T02:35:06.462Z,12.25
2019-02-15T02:37:35.475Z,8.30
2019-02-15T02:40:04.777Z,10.82
2019-02-15T02:42:33.754Z,9.83
2019-02-15T02:45:02.738Z,15.68
2019-02-15T02:47:31.771Z,7.45
2019-02-15T02:50:00.803Z,11.70
2019-02-15T02:52:29.792Z,12.82
2019-02-15T02:54:58.767Z,12.30
2019-02-15T02:57:27.756Z,10.23
2019-02-15T02:59:56.742Z,8.28
2019-02-15T03:02:25.721Z,14.73
2019-02-15T03:04:54.691Z,6.00
2019-02-15T03:07:23.725Z,7.28
2019-02-15T03:09:52.725Z,15.23
2019-02-15T03:12:21.715Z,9.43
2019-02-15T03:14:50.726Z,7.97
2019-02-15T03:17:19.658Z,6.58
2019-02-15T03:19:48.650Z,8.70
2019-02-15T03:22:17.631Z,11.88
2019-02-15T03:24:46.647Z,6.45
2019-02-15T03:27:15.659Z,9.58
2019-02-15T03:29:44.643Z,9.53
2019-02-15T03:32:13.620Z,6.87
2019-02-15T03:34:42.621Z,6.10
2019-02-15T03:37:26.497Z,9.53
2019-02-15T03:40:03.176Z,11.70
2019-02-15T03:42:32.142Z,9.40
2019-02-15T03:45:01.150Z,6.00
2019-02-15T03:47:30.132Z,10.70
2019-02-15T03:49:59.147Z,11.22
2019-02-15T03:52:28.189Z,7.03
2019-02-15T03:54:57.164Z,5.00
2019-02-15T03:57:26.189Z,7.53
2019-02-15T03:59:55.187Z,7.33
2019-02-15T04:02:24.173Z,6.58
2019-02-15T04:04:53.226Z,10.78
2019-02-15T04:07:22.192Z,12.28
2019-02-15T04:09:51.188Z,10.00
2019-02-15T04:12:20.225Z,13.08
2019-02-15T04:14:49.206Z,7.00
2019-02-15T04:17:18.237Z,14.83
2019-02-15T04:19:47.239Z,9.95
2019-02-15T04:22:16.224Z,11.15
2019-02-15T04:24:45.253Z,11.28
2019-02-15T04:27:14.262Z,11.80
2019-02-15T04:29:43.247Z,16.30
2019-02-15T04:32:12.257Z,12.50
2019-02-15T04:34:41.279Z,11.85
2019-02-15T04:37:10.312Z,11.65
2019-02-15T04:39:39.320Z,8.83
2019-02-15T04:42:08.310Z,10.18
2019-02-15T04:44:42.901Z,7.35
2019-02-15T04:47:08.147Z,9.90
2019-02-15T04:49:37.149Z,8.60
2019-02-15T04:52:06.128Z,9.05
2019-02-15T04:54:35.121Z,7.15
2019-02-15T04:57:04.161Z,11.80
2019-02-15T04:59:33.148Z,9.75
2019-02-15T05:02:02.206Z,12.98
2019-02-15T05:04:31.259Z,10.60
2019-02-15T05:07:00.249Z,9.60
2019-02-15T05:09:29.274Z,4.90
2019-02-15T05:11:58.345Z,6.12
2019-02-15T05:14:27.379Z,5.90
2019-02-15T05:16:56.358Z,8.15
2019-02-15T05:19:25.351Z,4.37
2019-02-15T05:21:54.403Z,5.62
2019-02-15T05:24:23.395Z,11.30
2019-02-15T05:26:52.414Z,10.48
2019-02-15T05:29:21.399Z,10.68
2019-02-15T05:31:50.433Z,12.28
2019-02-15T05:34:19.419Z,7.85
2019-02-15T05:36:48.442Z,7.17
2019-02-15T05:39:17.447Z,9.35
2019-02-15T05:41:46.476Z,9.28
2019-02-15T05:44:16.357Z,9.23
2019-02-15T05:46:45.430Z,8.03
2019-02-15T05:49:14.422Z,9.30
2019-02-15T05:51:43.520Z,7.58
2019-02-15T05:54:12.518Z,5.37
2019-02-15T05:56:41.764Z,15.65
2019-02-15T05:59:10.827Z,7.33
2019-02-15T06:01:39.839Z,8.58
2019-02-15T06:04:08.850Z,7.70
2019-02-15T06:06:37.912Z,8.20
2019-02-15T06:09:07.339Z,6.12
2019-02-15T06:11:36.355Z,10.03
2019-02-15T06:14:05.353Z,6.78
2019-02-15T06:16:34.460Z,7.20
2019-02-15T06:19:03.476Z,6.47
2019-02-15T06:21:32.496Z,6.53
2019-02-15T06:24:01.509Z,9.95
2019-02-15T06:26:30.586Z,9.00
2019-02-15T06:28:59.617Z,5.35
2019-02-15T06:31:28.657Z,7.87
2019-02-15T06:33:57.655Z,4.97
2019-02-15T06:36:29.886Z,6.22
2019-02-15T06:38:58.959Z,5.42
2019-02-15T06:41:27.956Z,4.70
2019-02-15T06:43:56.983Z,5.05
2019-02-15T06:46:25.983Z,5.37
2019-02-15T06:48:55.011Z,11.43
2019-02-15T06:51:24.064Z,6.78
2019-02-15T06:53:52.981Z,7.65
2019-02-15T06:56:22.097Z,11.88
2019-02-15T06:59:06.780Z,5.60
2019-02-15T07:01:53.356Z,8.95
2019-02-15T07:04:27.456Z,7.55
2019-02-15T07:06:56.466Z,9.20
2019-02-15T07:09:25.498Z,7.97
2019-02-15T07:11:54.576Z,7.78
2019-02-15T07:14:23.568Z,6.85
2019-02-15T07:16:52.594Z,6.03
2019-02-15T07:19:21.736Z,8.90
2019-02-15T07:21:50.786Z,7.40
2019-02-15T07:24:19.759Z,8.73
2019-02-15T07:26:48.765Z,8.78
2019-02-15T07:29:17.789Z,8.53
2019-02-15T07:31:46.783Z,7.80
2019-02-15T07:34:15.758Z,7.62
2019-02-15T07:36:44.754Z,6.53
2019-02-15T07:39:13.783Z,9.05
2019-02-15T07:41:42.775Z,7.67
2019-02-15T07:44:11.798Z,8.05
2019-02-15T07:46:40.831Z,9.25
2019-02-15T07:49:09.861Z,7.22
2019-02-15T07:51:38.831Z,8.75
2019-02-15T07:54:07.882Z,6.15
2019-02-15T07:56:36.875Z,6.70
2019-02-15T07:59:05.842Z,9.95
2019-02-15T08:01:34.818Z,25.25
2019-02-15T08:04:03.862Z,16.17
2019-02-15T08:06:32.850Z,14.95
2019-02-15T08:09:01.890Z,15.40
2019-02-15T08:11:30.874Z,12.25
2019-02-15T08:13:59.884Z,8.48
2019-02-15T08:16:28.866Z,9.05
2019-02-15T08:18:57.866Z,8.50
2019-02-15T08:21:26.890Z,9.60
2019-02-15T08:23:55.975Z,9.60
2019-02-15T08:26:25.005Z,9.75
2019-02-15T08:28:54.047Z,10.85
2019-02-15T08:31:23.067Z,12.23
2019-02-15T08:33:52.108Z,12.63
2019-02-15T08:36:21.109Z,15.63
2019-02-15T08:38:50.102Z,14.03
2019-02-15T08:41:19.108Z,13.10
2019-02-15T08:43:48.117Z,14.25
2019-02-15T08:46:17.129Z,10.58
2019-02-15T08:48:46.643Z,10.85
2019-02-15T08:51:15.677Z,10.68
2019-02-15T08:53:44.695Z,11.65
2019-02-15T08:56:13.720Z,10.78
2019-02-15T08:58:42.733Z,11.25
2019-02-15T09:01:11.736Z,11.18
2019-02-15T09:03:40.734Z,12.75
2019-02-15T09:06:09.768Z,11.25
2019-02-15T09:08:38.800Z,12.73
2019-02-15T09:11:08.169Z,14.68
2019-02-15T09:13:37.160Z,16.70
2019-02-15T09:16:10.373Z,15.55
2019-02-15T09:18:36.932Z,13.95
2019-02-15T09:21:05.980Z,20.23
2019-02-15T09:23:34.998Z,18.65
2019-02-15T09:26:03.991Z,16.60
2019-02-15T09:28:40.074Z,15.48
2019-02-15T09:31:09.132Z,16.77
2019-02-15T09:33:38.152Z,13.80
2019-02-15T09:36:07.159Z,12.13
2019-02-15T09:38:36.252Z,14.13
2019-02-15T09:41:05.299Z,11.25
2019-02-15T09:43:34.331Z,14.10
2019-02-15T09:46:03.319Z,10.10
2019-02-15T09:48:32.361Z,12.30
2019-02-15T09:51:01.400Z,9.45
2019-02-15T09:53:30.397Z,7.47
2019-02-15T09:55:59.476Z,7.22
2019-02-15T09:58:28.495Z,7.50
2019-02-15T10:00:57.579Z,6.62
2019-02-15T10:03:26.586Z,6.15
2019-02-15T10:05:55.605Z,5.95
2019-02-15T10:08:24.602Z,7.05
2019-02-15T10:10:53.617Z,7.45
2019-02-15T10:13:22.651Z,5.90
2019-02-15T10:15:51.713Z,7.62
2019-02-15T10:18:20.727Z,5.15
2019-02-15T10:20:49.802Z,6.55
2019-02-15T10:23:18.808Z,5.97
2019-02-15T10:25:47.806Z,5.22
2019-02-15T10:28:16.861Z,7.78
2019-02-15T10:30:45.885Z,7.90
2019-02-15T10:33:14.930Z,6.97
2019-02-15T10:35:43.944Z,7.65
2019-02-15T10:38:12.939Z,7.53
2019-02-15T10:40:41.934Z,8.35
2019-02-15T10:43:10.990Z,7.35
2019-02-15T10:45:40.595Z,6.37
2019-02-15T10:48:10.759Z,7.55
2019-02-15T10:50:40.010Z,7.25
2019-02-15T10:53:10.914Z,6.28
2019-02-15T10:55:39.726Z,6.45
2019-02-15T10:58:08.745Z,7.30
2019-02-15T11:00:37.781Z,5.20
2019-02-15T11:03:06.813Z,4.85
2019-02-15T11:05:35.821Z,4.95
2019-02-15T11:08:04.849Z,4.92
2019-02-15T11:10:33.853Z,4.53
2019-02-15T11:13:02.891Z,4.97
2019-02-15T11:15:31.909Z,4.03
2019-02-15T11:18:00.947Z,3.70
2019-02-15T11:20:29.977Z,3.98
2019-02-15T11:22:59.068Z,4.00
2019-02-15T11:25:28.115Z,4.10
2019-02-15T11:27:57.172Z,2.98
2019-02-15T11:30:26.194Z,4.20
2019-02-15T11:32:55.197Z,3.20
2019-02-15T11:35:24.754Z,3.65
2019-02-15T11:37:53.752Z,3.72
2019-02-15T11:40:22.822Z,3.55
2019-02-15T11:42:51.826Z,4.05
2019-02-15T11:45:20.808Z,3.20
2019-02-15T11:47:49.836Z,2.67
2019-02-15T11:50:21.644Z,2.40
2019-02-15T11:52:50.661Z,2.25
2019-02-15T11:55:19.738Z,3.75
2019-02-15T11:57:48.765Z,2.25
2019-02-15T12:00:23.174Z,2.87
2019-02-15T12:02:52.140Z,4.25
2019-02-15T12:05:21.158Z,2.17
2019-02-15T12:07:51.759Z,2.92
2019-02-15T12:10:20.936Z,3.05
2019-02-15T12:12:49.986Z,4.85
2019-02-15T12:15:18.983Z,3.40
2019-02-15T12:17:48.150Z,4.37
2019-02-15T12:20:17.191Z,3.67
2019-02-15T12:22:46.295Z,3.17
2019-02-15T12:25:15.370Z,3.67
2019-02-15T12:27:44.379Z,2.55
2019-02-15T12:30:13.407Z,4.05
2019-02-15T12:32:42.442Z,5.12
2019-02-15T12:35:11.503Z,2.70
2019-02-15T12:37:40.553Z,3.17
2019-02-15T12:40:09.607Z,2.98
2019-02-15T12:42:38.629Z,3.72
2019-02-15T12:45:08.450Z,3.52
2019-02-15T12:47:37.490Z,3.98
2019-02-15T12:50:09.082Z,2.77
2019-02-15T12:52:38.118Z,3.92
2019-02-15T12:55:07.269Z,3.58
2019-02-15T12:57:36.252Z,3.42
2019-02-15T13:00:06.540Z,3.58
2019-02-15T13:02:36.891Z,2.45
2019-02-15T13:05:06.236Z,2.85
2019-02-15T13:07:35.256Z,4.75
2019-02-15T13:10:05.493Z,2.72
2019-02-15T13:12:34.615Z,2.95
2019-02-15T13:15:03.684Z,2.42
2019-02-15T13:17:32.774Z,3.02
2019-02-15T13:20:01.797Z,3.05
2019-02-15T13:22:30.894Z,3.70
2019-02-15T13:24:59.989Z,2.42
2019-02-15T13:27:29.041Z,3.62
2019-02-15T13:29:58.044Z,2.77
2019-02-15T13:32:27.047Z,3.00
2019-02-15T13:34:56.051Z,3.17
2019-02-15T13:37:25.403Z,3.75
2019-02-15T13:39:54.676Z,3.45
2019-02-15T13:42:23.674Z,2.40
2019-02-15T13:44:53.042Z,3.87
2019-02-15T13:47:22.108Z,2.15
2019-02-15T13:49:51.149Z,2.08
2019-02-15T13:52:20.220Z,1.95
2019-02-15T13:54:49.264Z,3.50
2019-02-15T13:57:18.286Z,2.05
2019-02-15T13:59:47.294Z,4.42
2019-02-15T14:02:16.366Z,2.72
2019-02-15T14:04:45.487Z,2.27
2019-02-15T14:07:19.353Z,2.35
2019-02-15T14:09:48.430Z,2.37
2019-02-15T14:12:17.715Z,2.62
2019-02-15T14:14:46.803Z,4.25
2019-02-15T14:17:15.858Z,2.42
2019-02-15T14:19:44.911Z,2.92
2019-02-15T14:22:14.059Z,2.70
2019-02-15T14:24:43.146Z,2.80
2019-02-15T14:27:13.150Z,2.85
2019-02-15T14:29:42.660Z,2.42
2019-02-15T14:32:12.223Z,3.25
2019-02-15T14:34:41.347Z,2.77
2019-02-15T14:37:10.520Z,3.95
2019-02-15T14:39:39.869Z,4.20
2019-02-15T14:42:08.975Z,3.90
2019-02-15T14:44:38.243Z,4.97
2019-02-15T14:47:07.479Z,3.05
2019-02-15T14:49:36.563Z,3.98
2019-02-15T14:52:05.598Z,3.70
2019-02-15T14:54:34.659Z,2.60
2019-02-15T14:57:03.700Z,2.58
2019-02-15T14:59:32.760Z,4.50
2019-02-15T15:02:01.845Z,2.72
2019-02-15T15:04:30.944Z,2.87
2019-02-15T15:06:59.976Z,3.15
2019-02-15T15:09:29.022Z,2.58
2019-02-15T15:11:58.058Z,3.45
2019-02-15T15:14:27.218Z,3.72
2019-02-15T15:16:56.413Z,2.98
2019-02-15T15:19:25.500Z,3.00
2019-02-15T15:21:54.600Z,3.33
2019-02-15T15:24:23.656Z,3.37
2019-02-15T15:26:52.685Z,2.95
2019-02-15T15:29:21.781Z,4.97
2019-02-15T15:31:50.846Z,3.05
2019-02-15T15:34:20.416Z,2.75
2019-02-15T15:36:50.199Z,4.08
2019-02-15T15:39:19.433Z,3.47
2019-02-15T15:41:48.500Z,4.28
2019-02-15T15:44:17.567Z,4.10
2019-02-15T15:46:46.582Z,4.40
2019-02-15T15:49:16.833Z,3.58
2019-02-15T15:51:46.016Z,5.90
2019-02-15T15:54:15.075Z,5.00
2019-02-15T15:56:44.119Z,4.92
2019-02-15T15:59:13.133Z,7.35
2019-02-15T16:01:42.188Z,6.75
2019-02-15T16:04:11.207Z,5.85
2019-02-15T16:06:40.356Z,4.08
2019-02-15T16:09:09.359Z,3.58
2019-02-15T16:11:38.384Z,3.85
2019-02-15T16:14:07.455Z,6.92
2019-02-15T16:16:37.335Z,4.17
2019-02-15T16:19:06.378Z,17.40
2019-02-15T16:21:35.382Z,7.55
2019-02-15T16:24:12.388Z,4.90
2019-02-15T16:26:35.195Z,5.62
2019-02-15T16:29:04.272Z,4.78
2019-02-15T16:31:33.255Z,4.35
2019-02-15T16:34:02.273Z,3.70
2019-02-15T16:36:31.537Z,4.67
2019-02-15T16:39:00.582Z,2.75
2019-02-15T16:41:30.066Z,3.55
2019-02-15T16:43:59.115Z,4.22
2019-02-15T16:46:28.166Z,2.62
2019-02-15T16:48:57.203Z,6.42
2019-02-15T16:51:26.433Z,6.95
2019-02-15T16:53:55.508Z,4.78
2019-02-15T16:56:24.528Z,5.40
2019-02-15T16:58:53.630Z,3.87
2019-02-15T17:01:24.077Z,5.65
2019-02-15T17:03:53.253Z,8.45
2019-02-15T17:06:23.394Z,4.30
2019-02-15T17:08:52.639Z,2.72
2019-02-15T17:11:21.744Z,4.45
2019-02-15T17:13:50.755Z,5.22
2019-02-15T17:16:19.866Z,5.05
2019-02-15T17:18:51.732Z,4.30
2019-02-15T17:21:19.689Z,5.08
2019-02-15T17:23:48.738Z,4.55
2019-02-15T17:26:17.831Z,3.05
2019-02-15T17:28:46.974Z,5.50
2019-02-15T17:31:16.164Z,4.10
2019-02-15T17:33:45.317Z,4.40
2019-02-15T17:36:14.359Z,5.33
2019-02-15T17:38:43.483Z,4.15
2019-02-15T17:41:12.991Z,4.42
2019-02-15T17:43:42.030Z,3.35
2019-02-15T17:46:11.224Z,3.95
2019-02-15T17:48:40.393Z,3.65
2019-02-15T17:51:10.811Z,2.87
2019-02-15T17:53:40.748Z,4.17
2019-02-15T17:56:10.531Z,3.75
2019-02-15T17:58:39.924Z,3.25
2019-02-15T18:01:09.403Z,2.77
2019-02-15T18:03:39.463Z,5.90
2019-02-15T18:06:11.535Z,3.15
2019-02-15T18:08:41.161Z,6.90
2019-02-15T18:11:12.260Z,3.77
2019-02-15T18:13:44.900Z,3.87
2019-02-15T18:16:15.519Z,3.75
2019-02-15T18:18:47.036Z,4.80
2019-02-15T18:21:17.905Z,3.70
2019-02-15T18:23:49.262Z,4.83
2019-02-15T18:26:21.653Z,3.80
2019-02-15T18:28:52.071Z,3.27
2019-02-15T18:31:23.924Z,5.33
2019-02-15T18:33:55.591Z,3.08
2019-02-15T18:36:27.009Z,3.37
2019-02-15T18:38:58.830Z,5.17
2019-02-15T18:41:30.981Z,5.87
2019-02-15T18:44:02.692Z,6.60
2019-02-15T18:46:34.391Z,7.55
2019-02-15T18:49:06.628Z,6.47
2019-02-15T18:51:39.102Z,6.17
2019-02-15T18:54:11.131Z,6.35
2019-02-15T18:56:44.958Z,6.12
2019-02-15T18:59:17.674Z,5.80
2019-02-15T19:01:57.279Z,3.92
2019-02-15T19:04:31.761Z,4.62
2019-02-15T19:07:03.473Z,6.58
2019-02-15T19:09:35.386Z,7.08
2019-02-15T19:12:06.539Z,4.95
2019-02-15T19:14:37.641Z,5.03
2019-02-15T19:17:09.262Z,7.33
2019-02-15T19:19:40.274Z,4.17
2019-02-15T19:22:10.821Z,4.53
2019-02-15T19:24:40.696Z,6.15
2019-02-15T19:27:10.926Z,4.05
2019-02-15T19:29:41.661Z,4.67
2019-02-15T19:32:11.701Z,4.33
2019-02-15T19:34:42.566Z,4.90
2019-02-15T19:37:13.071Z,4.40
2019-02-15T19:39:43.813Z,4.33
2019-02-15T19:42:19.219Z,5.30
2019-02-15T19:44:52.708Z,6.08
2019-02-15T19:47:25.457Z,4.40
2019-02-15T19:49:58.409Z,3.42
2019-02-15T19:52:30.266Z,4.33
2019-02-15T19:55:04.638Z,6.90
2019-02-15T19:57:38.207Z,8.88
2019-02-15T20:00:17.939Z,5.22
2019-02-15T20:02:59.631Z,11.80
2019-02-15T20:05:35.074Z,10.98
2019-02-15T20:08:12.564Z,7.65
2019-02-15T20:10:50.561Z,7.42
2019-02-15T20:13:26.497Z,41.35
2019-02-15T20:16:00.430Z,18.02
2019-02-15T20:18:37.938Z,11.35
2019-02-15T20:21:13.279Z,10.15
2019-02-15T20:23:51.415Z,8.65
2019-02-15T20:26:30.237Z,6.92
2019-02-15T20:29:07.581Z,6.75
2019-02-15T20:31:46.833Z,7.45
2019-02-15T20:34:25.071Z,9.15
2019-02-15T20:37:03.146Z,6.12
2019-02-15T20:39:41.746Z,8.60
2019-02-15T20:42:19.205Z,4.10
2019-02-15T20:44:54.599Z,4.87
2019-02-15T20:47:47.615Z,5.20
2019-02-15T20:50:27.474Z,4.83
2019-02-15T20:53:02.071Z,4.78
2019-02-15T20:55:35.334Z,5.42
2019-02-15T20:58:10.606Z,5.30
2019-02-15T21:00:47.720Z,7.90
2019-02-15T21:03:25.629Z,7.03
2019-02-15T21:06:03.174Z,10.30
2019-02-15T21:08:41.492Z,6.28
2019-02-15T21:11:19.807Z,5.33
2019-02-15T21:13:54.743Z,6.03
2019-02-15T21:16:32.279Z,4.85
2019-02-15T21:19:10.828Z,11.53
2019-02-15T21:21:43.532Z,13.32
2019-02-15T21:24:16.016Z,15.68
2019-02-15T21:26:54.473Z,12.30
2019-02-15T21:29:28.569Z,9.08
2019-02-15T21:32:02.928Z,6.37
2019-02-15T21:34:36.765Z,6.87
2019-02-15T21:37:09.290Z,11.37
2019-02-15T21:39:41.096Z,12.65
2019-02-15T21:42:12.492Z,9.88
2019-02-15T21:44:43.832Z,11.93
2019-02-15T21:47:13.920Z,12.80
2019-02-15T21:49:43.484Z,11.55
2019-02-15T21:52:14.082Z,10.78
2019-02-15T21:54:44.460Z,7.95
2019-02-15T21:57:14.545Z,8.98
2019-02-15T21:59:44.855Z,8.50
2019-02-15T22:02:14.497Z,7.70
2019-02-15T22:04:43.776Z,8.93
2019-02-15T22:07:12.807Z,6.00
2019-02-15T22:09:41.787Z,7.62
2019-02-15T22:12:10.836Z,7.12
2019-02-15T22:14:39.875Z,5.70
2019-02-15T22:17:08.937Z,5.53
2019-02-15T22:19:37.978Z,5.08
2019-02-15T22:22:07.114Z,7.62
2019-02-15T22:24:36.166Z,6.50
2019-02-15T22:27:05.251Z,10.85
2019-02-15T22:29:34.418Z,7.25
2019-02-15T22:32:03.687Z,6.62
2019-02-15T22:34:32.879Z,5.30
2019-02-15T22:37:01.867Z,4.42
2019-02-15T22:39:30.845Z,4.37
2019-02-15T22:41:59.864Z,3.45
2019-02-15T22:44:28.849Z,2.98
2019-02-15T22:46:57.906Z,4.33
2019-02-15T22:49:26.986Z,4.65
2019-02-15T22:51:55.980Z,3.95
2019-02-15T22:54:24.997Z,4.53
2019-02-15T22:56:54.054Z,3.40
2019-02-15T22:59:23.061Z,5.28
2019-02-15T23:01:52.109Z,4.05
2019-02-15T23:04:21.270Z,3.98
2019-02-15T23:06:53.294Z,5.03
2019-02-15T23:09:26.421Z,2.98
2019-02-15T23:11:55.503Z,3.95
2019-02-15T23:14:24.493Z,4.08
2019-02-15T23:16:53.523Z,2.65
2019-02-15T23:19:22.544Z,6.75
2019-02-15T23:21:51.559Z,5.05
2019-02-15T23:24:20.552Z,4.75
2019-02-15T23:26:49.575Z,5.00
2019-02-15T23:29:18.571Z,3.95
2019-02-15T23:31:47.561Z,5.75
2019-02-15T23:34:16.523Z,5.35
2019-02-15T23:36:45.527Z,3.55
2019-02-15T23:39:14.503Z,4.22
2019-02-15T23:41:43.497Z,3.08
2019-02-15T23:44:12.490Z,4.62
2019-02-15T23:46:41.508Z,3.52
2019-02-15T23:49:10.530Z,4.05
2019-02-15T23:51:39.520Z,4.60
2019-02-15T23:54:08.524Z,3.67
2019-02-15T23:56:37.536Z,3.70
2019-02-15T23:59:06.532Z,4.22
